createdAt,value
2023-08-17T00:02:28.699Z,102027.16
2023-08-17T00:05:02.777Z,102022.53
2023-08-17T00:07:36.180Z,102024.97
2023-08-17T00:10:09.927Z,102021.84
2023-08-17T00:12:42.807Z,102018.69
2023-08-17T00:15:15.717Z,102021.78
2023-08-17T00:17:48.901Z,102023.53
2023-08-17T00:20:26.172Z,102028.31
2023-08-17T00:22:58.984Z,102027.09
2023-08-17T00:25:33.077Z,102023.16
2023-08-17T00:28:07.224Z,102026.38
2023-08-17T00:30:40.103Z,102019.59
2023-08-17T00:33:12.823Z,102023.72
2023-08-17T00:35:48.664Z,102024.50
2023-08-17T00:38:21.722Z,102019.78
2023-08-17T00:40:55.660Z,102029.50
2023-08-17T00:43:28.783Z,102020.59
2023-08-17T00:46:02.300Z,102016.75
2023-08-17T00:48:35.691Z,102017.03
2023-08-17T00:51:09.795Z,102020.69
2023-08-17T00:53:43.407Z,102019.13
2023-08-17T00:56:16.623Z,102012.06
2023-08-17T00:58:51.143Z,102020.44
2023-08-17T01:07:27.348Z,102022.50
2023-08-17T01:10:01.439Z,102019.31
2023-08-17T01:12:40.077Z,102030.53
2023-08-17T01:15:17.867Z,102017.00
2023-08-17T01:17:57.020Z,102011.91
2023-08-17T01:20:34.523Z,102013.41
2023-08-17T01:23:09.475Z,102017.84
2023-08-17T01:25:42.352Z,102018.22
2023-08-17T01:28:15.241Z,102016.22
2023-08-17T01:30:54.343Z,102017.84
2023-08-17T01:33:33.373Z,102026.25
2023-08-17T01:36:22.141Z,102021.13
2023-08-17T01:38:58.586Z,102014.00
2023-08-17T01:41:32.744Z,102011.63
2023-08-17T01:44:07.005Z,102016.47
2023-08-17T01:46:40.383Z,102010.09
2023-08-17T01:49:13.397Z,102006.00
2023-08-17T01:51:46.258Z,102002.88
2023-08-17T02:03:58.009Z,102006.13
2023-08-17T02:06:31.000Z,102005.78
2023-08-17T02:09:03.665Z,102011.00
2023-08-17T02:14:45.717Z,102008.66
2023-08-17T02:17:20.049Z,102013.53
2023-08-17T02:19:57.948Z,102005.59
2023-08-17T02:22:30.826Z,102007.53
2023-08-17T02:33:45.547Z,102009.25
2023-08-17T02:36:19.842Z,102004.94
2023-08-17T02:38:53.363Z,102003.44
2023-08-17T02:41:26.197Z,101998.25
2023-08-17T02:43:59.601Z,102001.06
2023-08-17T02:46:32.623Z,101995.09
2023-08-17T02:49:06.362Z,101990.69
2023-08-17T02:51:41.367Z,101990.34
2023-08-17T02:54:14.184Z,101998.69
2023-08-17T02:57:08.638Z,101997.50
2023-08-17T02:59:41.806Z,101990.34
2023-08-17T03:02:15.165Z,101999.59
2023-08-17T03:04:47.912Z,101990.81
2023-08-17T03:07:22.148Z,101996.44
2023-08-17T03:09:54.934Z,101997.66
2023-08-17T03:12:27.704Z,102000.03
2023-08-17T03:15:00.818Z,101998.88
2023-08-17T03:17:35.814Z,101997.28
2023-08-17T03:20:10.471Z,102002.88
2023-08-17T03:22:44.925Z,101993.78
2023-08-17T03:25:19.958Z,102000.16
2023-08-17T03:27:54.301Z,101992.56
2023-08-17T03:30:28.019Z,101979.84
2023-08-17T03:33:00.945Z,101991.00
2023-08-17T03:35:33.707Z,101987.84
2023-08-17T03:38:07.935Z,101987.06
2023-08-17T03:40:40.989Z,101983.84
2023-08-17T03:43:13.732Z,101991.84
2023-08-17T03:45:46.878Z,101984.75
2023-08-17T03:48:20.027Z,101986.69
2023-08-17T03:50:54.173Z,101989.53
2023-08-17T03:53:28.431Z,101987.09
2023-08-17T03:56:01.371Z,101994.69
2023-08-17T03:58:35.687Z,101986.31
2023-08-17T04:01:08.846Z,101984.75
2023-08-17T04:03:41.547Z,101985.22
2023-08-17T04:06:15.185Z,101996.72
2023-08-17T04:08:50.580Z,101982.44
2023-08-17T04:11:23.391Z,101988.78
2023-08-17T04:26:37.087Z,101995.66
2023-08-17T04:38:42.236Z,101986.19
2023-08-17T04:41:15.248Z,101992.19
2023-08-17T04:43:50.661Z,101985.78
2023-08-17T04:46:23.830Z,101992.13
2023-08-17T04:48:56.719Z,101989.34
2023-08-17T04:51:29.787Z,101993.75
2023-08-17T04:54:03.651Z,101998.53
2023-08-17T04:56:36.746Z,101995.38
2023-08-17T04:59:11.791Z,101990.19
2023-08-17T05:01:45.602Z,101988.97
2023-08-17T05:04:18.657Z,101983.84
2023-08-17T05:06:51.551Z,101977.06
2023-08-17T05:09:24.336Z,101985.81
2023-08-17T05:11:57.124Z,101986.69
2023-08-17T05:14:31.313Z,101979.47
2023-08-17T05:17:04.315Z,101977.09
2023-08-17T05:19:36.886Z,101969.19
2023-08-17T05:22:12.992Z,101975.50
2023-08-17T05:24:45.859Z,101978.34
2023-08-17T05:27:18.550Z,101977.94
2023-08-17T05:29:54.532Z,101975.56
2023-08-17T05:32:27.508Z,101987.03
2023-08-17T05:35:01.128Z,101994.97
2023-08-17T05:37:34.048Z,101992.59
2023-08-17T05:40:09.786Z,101996.13
2023-08-17T05:42:43.893Z,101993.75
2023-08-17T05:45:21.990Z,101992.53
2023-08-17T05:47:55.113Z,101985.75
2023-08-17T05:50:28.196Z,101987.31
2023-08-17T05:53:01.246Z,101991.31
2023-08-17T05:55:34.131Z,101989.72
2023-08-17T05:58:06.912Z,101985.78
2023-08-17T06:00:41.190Z,101979.78
2023-08-17T06:03:14.409Z,101984.16
2023-08-17T06:05:47.447Z,101988.94
2023-08-17T06:08:20.053Z,101988.50
2023-08-17T06:10:53.372Z,101991.28
2023-08-17T06:13:26.682Z,101996.09
2023-08-17T06:16:01.045Z,102000.84
2023-08-17T06:18:33.954Z,102011.19
2023-08-17T06:21:06.678Z,102005.22
2023-08-17T06:23:39.818Z,102012.00
2023-08-17T06:26:13.890Z,102010.38
2023-08-17T06:28:46.717Z,102019.94
2023-08-17T06:31:20.851Z,102011.19
2023-08-17T06:33:53.833Z,102003.22
2023-08-17T06:36:26.562Z,102008.75
2023-08-17T06:38:59.351Z,102012.75
2023-08-17T06:41:32.227Z,102007.56
2023-08-17T06:44:05.469Z,102007.56
2023-08-17T06:46:39.584Z,102005.16
2023-08-17T06:49:13.516Z,102009.50
2023-08-17T06:51:46.364Z,102004.75
2023-08-17T06:54:19.361Z,102009.44
2023-08-17T06:56:52.127Z,102006.72
2023-08-17T06:59:24.998Z,102009.06
2023-08-17T07:01:59.560Z,102007.88
2023-08-17T07:04:32.400Z,102003.09
2023-08-17T07:07:05.312Z,101999.00
2023-08-17T07:09:37.909Z,101997.81
2023-08-17T07:12:10.675Z,101993.47
2023-08-17T07:14:43.631Z,101993.06
2023-08-17T07:17:17.628Z,102005.34
2023-08-17T07:20:07.677Z,102011.28
2023-08-17T07:22:43.331Z,102004.91
2023-08-17T07:25:16.364Z,102008.50
2023-08-17T07:27:49.245Z,102009.94
2023-08-17T07:30:22.049Z,102003.53
2023-08-17T07:32:56.543Z,102007.84
2023-08-17T07:35:29.495Z,102004.22
2023-08-17T07:38:08.747Z,102012.03
2023-08-17T07:40:44.005Z,102009.09
2023-08-17T07:43:16.865Z,101994.50
2023-08-17T07:45:54.814Z,102001.13
2023-08-17T07:48:30.794Z,102013.69
2023-08-17T07:51:03.746Z,102001.25
2023-08-17T07:53:36.607Z,102010.22
2023-08-17T07:56:09.915Z,102008.84
2023-08-17T07:58:45.386Z,102012.09
2023-08-17T08:01:19.359Z,102007.03
2023-08-17T08:03:53.671Z,102008.69
2023-08-17T08:06:26.581Z,102002.13
2023-08-17T08:08:59.332Z,102003.41
2023-08-17T08:11:32.701Z,101993.44
2023-08-17T08:14:06.064Z,101996.44
2023-08-17T08:16:38.926Z,101995.13
2023-08-17T08:19:13.106Z,101997.50
2023-08-17T08:21:45.887Z,101998.09
2023-08-17T08:24:35.192Z,102006.09
2023-08-17T08:27:10.841Z,101996.19
2023-08-17T08:29:44.920Z,101993.03
2023-08-17T08:32:17.780Z,101989.22
2023-08-17T08:34:51.945Z,101985.13
2023-08-17T08:37:24.909Z,101981.72
2023-08-17T08:39:57.943Z,101984.97
2023-08-17T08:42:30.710Z,101984.53
2023-08-17T08:45:03.673Z,101986.97
2023-08-17T08:47:39.067Z,101978.69
2023-08-17T08:50:20.041Z,101981.94
2023-08-17T08:53:00.801Z,101987.25
2023-08-17T08:55:40.053Z,101984.78
2023-08-17T08:58:19.220Z,101986.31
2023-08-17T09:00:52.141Z,101982.38
2023-08-17T09:03:26.762Z,101989.59
2023-08-17T09:06:00.838Z,101978.59
2023-08-17T09:08:33.579Z,101977.53
2023-08-17T09:11:06.517Z,101981.91
2023-08-17T09:13:39.426Z,101978.66
2023-08-17T09:16:12.380Z,101968.59
2023-08-17T09:18:45.642Z,101972.84
2023-08-17T09:21:24.961Z,101972.84
2023-08-17T09:23:59.554Z,101973.94
2023-08-17T09:26:34.274Z,101959.56
2023-08-17T09:29:20.180Z,101962.00
2023-08-17T09:31:53.295Z,101960.09
2023-08-17T09:34:26.010Z,101955.56
2023-08-17T09:37:04.729Z,101958.91
2023-08-17T09:39:37.578Z,101954.91
2023-08-17T09:42:11.857Z,101947.78
2023-08-17T09:44:44.868Z,101956.47
2023-08-17T09:47:18.653Z,101944.72
2023-08-17T09:49:51.664Z,101947.66
2023-08-17T09:52:26.043Z,101943.44
2023-08-17T09:55:08.126Z,101952.41
2023-08-17T09:57:43.594Z,101946.69
2023-08-17T10:00:16.970Z,101944.22
2023-08-17T10:02:52.162Z,101943.22
2023-08-17T10:05:25.932Z,101947.63
2023-08-17T10:08:02.924Z,101939.72
2023-08-17T10:10:40.720Z,101936.03
2023-08-17T10:13:18.358Z,101931.50
2023-08-17T10:16:02.243Z,101928.06
2023-08-17T10:18:43.623Z,101935.94
2023-08-17T10:21:28.778Z,101924.09
2023-08-17T10:24:05.106Z,101936.81
2023-08-17T10:26:37.896Z,101934.72
2023-08-17T10:29:15.375Z,101932.72
2023-08-17T10:31:51.119Z,101924.66
2023-08-17T10:34:25.911Z,101931.03
2023-08-17T10:37:01.231Z,101930.47
2023-08-17T10:39:40.894Z,101937.22
2023-08-17T10:42:13.727Z,101934.69
2023-08-17T10:44:47.629Z,101942.19
2023-08-17T10:47:22.418Z,101946.66
2023-08-17T10:49:59.549Z,101936.94
2023-08-17T10:52:33.944Z,101946.34
2023-08-17T10:55:09.981Z,101927.69
2023-08-17T10:57:44.664Z,101932.09
2023-08-17T11:00:25.352Z,101925.34
2023-08-17T11:03:01.029Z,101927.41
2023-08-17T11:05:42.896Z,101927.88
2023-08-17T11:08:23.178Z,101923.16
2023-08-17T11:11:01.697Z,101926.91
2023-08-17T11:13:36.306Z,101927.53
2023-08-17T11:16:11.135Z,101927.72
2023-08-17T11:18:45.398Z,101937.56
2023-08-17T11:21:20.003Z,101936.00
2023-08-17T11:23:53.515Z,101931.56
2023-08-17T11:26:28.974Z,101924.69
2023-08-17T11:29:02.312Z,101931.56
2023-08-17T11:31:35.343Z,101926.75
2023-08-17T11:34:08.205Z,101931.00
2023-08-17T11:36:41.221Z,101927.09
2023-08-17T11:39:15.209Z,101928.50
2023-08-17T11:41:53.414Z,101926.59
2023-08-17T11:44:27.149Z,101930.06
2023-08-17T11:46:59.989Z,101925.19
2023-08-17T11:49:38.551Z,101923.78
2023-08-17T11:52:11.988Z,101924.88
2023-08-17T11:54:44.767Z,101919.09
2023-08-17T11:57:19.002Z,101925.66
2023-08-17T11:59:55.160Z,101916.56
2023-08-17T12:02:30.440Z,101922.97
2023-08-17T12:05:07.584Z,101919.03
2023-08-17T12:07:40.531Z,101916.38
2023-08-17T12:10:13.905Z,101914.19
2023-08-17T12:12:48.840Z,101919.97
2023-08-17T12:15:21.724Z,101907.88
2023-08-17T12:17:54.815Z,101907.03
2023-08-17T12:20:27.625Z,101906.78
2023-08-17T12:23:01.582Z,101905.22
2023-08-17T12:25:34.403Z,101902.69
2023-08-17T12:28:08.792Z,101900.06
2023-08-17T12:30:41.819Z,101894.22
2023-08-17T12:33:14.588Z,101895.44
2023-08-17T12:35:47.435Z,101894.75
2023-08-17T12:38:20.552Z,101897.41
2023-08-17T12:40:53.521Z,101894.09
2023-08-17T12:43:28.136Z,101889.44
2023-08-17T12:46:00.967Z,101878.72
2023-08-17T12:48:36.126Z,101877.06
2023-08-17T12:51:09.261Z,101877.66
2023-08-17T12:53:43.079Z,101877.28
2023-08-17T12:56:15.888Z,101884.78
2023-08-17T12:58:50.112Z,101883.88
2023-08-17T13:01:23.932Z,101886.22
2023-08-17T13:03:58.832Z,101886.63
2023-08-17T13:06:43.686Z,101894.47
2023-08-17T13:09:21.931Z,101884.94
2023-08-17T13:11:54.691Z,101884.75
2023-08-17T13:14:28.871Z,101877.81
2023-08-17T13:17:01.655Z,101888.25
2023-08-17T13:19:34.396Z,101879.44
2023-08-17T13:22:07.200Z,101875.25
2023-08-17T13:24:41.173Z,101873.78
2023-08-17T13:27:14.059Z,101881.44
2023-08-17T13:29:50.800Z,101880.00
2023-08-17T13:32:24.006Z,101872.59
2023-08-17T13:34:56.950Z,101881.16
2023-08-17T13:37:29.686Z,101879.78
2023-08-17T13:40:02.408Z,101887.13
2023-08-17T13:42:35.152Z,101887.84
2023-08-17T13:45:10.523Z,101881.00
2023-08-17T13:47:43.322Z,101882.19
2023-08-17T13:50:16.229Z,101882.88
2023-08-17T13:52:49.059Z,101879.50
2023-08-17T13:55:22.141Z,101889.19
2023-08-17T13:57:56.444Z,101884.66
2023-08-17T14:00:30.844Z,101884.50
2023-08-17T14:03:04.190Z,101889.94
2023-08-17T14:05:37.273Z,101893.16
2023-08-17T14:08:11.962Z,101880.97
2023-08-17T14:10:44.867Z,101891.06
2023-08-17T14:13:17.694Z,101879.63
2023-08-17T14:15:52.063Z,101883.56
2023-08-17T14:18:24.833Z,101880.13
2023-08-17T14:20:58.627Z,101887.38
2023-08-17T14:23:31.378Z,101888.66
2023-08-17T14:26:04.262Z,101877.84
2023-08-17T14:28:44.425Z,101869.53
2023-08-17T14:31:19.513Z,101869.53
2023-08-17T14:33:53.240Z,101860.44
2023-08-17T14:36:26.235Z,101855.91
2023-08-17T14:38:59.017Z,101856.84
2023-08-17T14:41:33.854Z,101855.44
2023-08-17T14:44:07.407Z,101854.66
2023-08-17T14:46:43.240Z,101847.41
2023-08-17T14:49:16.135Z,101848.41
2023-08-17T14:51:49.181Z,101843.53
2023-08-17T14:54:22.113Z,101841.00
2023-08-17T14:56:57.773Z,101838.50
2023-08-17T14:59:30.737Z,101837.28
2023-08-17T15:02:04.998Z,101833.97
2023-08-17T15:04:38.975Z,101829.72
2023-08-17T15:07:12.322Z,101824.19
2023-08-17T15:09:45.245Z,101818.41
2023-08-17T15:12:18.065Z,101823.44
2023-08-17T15:14:50.903Z,101825.97
2023-08-17T15:17:25.383Z,101834.72
2023-08-17T15:20:00.050Z,101835.03
2023-08-17T15:22:32.995Z,101823.91
2023-08-17T15:25:06.418Z,101826.22
2023-08-17T15:27:39.250Z,101821.84
2023-08-17T15:30:12.788Z,101812.75
2023-08-17T15:32:46.966Z,101821.38
2023-08-17T15:35:19.925Z,101815.06
2023-08-17T15:37:52.849Z,101811.72
2023-08-17T15:40:25.899Z,101805.13
2023-08-17T15:42:58.662Z,101798.81
2023-08-17T15:45:31.239Z,101794.13
2023-08-17T15:48:05.702Z,101808.19
2023-08-17T15:50:38.464Z,101806.91
2023-08-17T15:53:11.241Z,101814.06
2023-08-17T15:55:44.054Z,101811.94
2023-08-17T15:58:16.689Z,101808.63
2023-08-17T16:00:49.462Z,101803.94
2023-08-17T16:03:24.381Z,101805.28
2023-08-17T16:05:57.241Z,101798.56
2023-08-17T16:08:47.396Z,101803.22
2023-08-17T16:11:20.743Z,101798.19
2023-08-17T16:13:53.510Z,101794.06
2023-08-17T16:16:26.288Z,101798.28
2023-08-17T16:19:04.452Z,101782.91
2023-08-17T16:21:38.740Z,101781.00
2023-08-17T16:24:11.753Z,101781.66
2023-08-17T16:26:44.737Z,101782.44
2023-08-17T16:29:17.460Z,101776.94
2023-08-17T16:32:00.654Z,101777.06
2023-08-17T16:34:34.759Z,101767.56
2023-08-17T16:37:07.694Z,101769.47
2023-08-17T16:39:40.489Z,101757.56
2023-08-17T16:42:13.154Z,101760.03
2023-08-17T16:44:46.249Z,101762.84
2023-08-17T16:47:21.554Z,101756.91
2023-08-17T16:49:56.230Z,101751.28
2023-08-17T16:52:30.198Z,101759.41
2023-08-17T16:55:03.051Z,101763.88
2023-08-17T16:57:35.935Z,101748.66
2023-08-17T17:00:10.259Z,101755.19
2023-08-17T17:02:43.147Z,101757.03
2023-08-17T17:05:17.298Z,101763.22
2023-08-17T17:07:50.176Z,101748.50
2023-08-17T17:10:23.006Z,101758.41
2023-08-17T17:12:55.695Z,101757.53
2023-08-17T17:15:28.804Z,101755.94
2023-08-17T17:18:01.775Z,101760.19
2023-08-17T17:20:36.066Z,101762.38
2023-08-17T17:23:08.876Z,101770.09
2023-08-17T17:25:41.884Z,101754.94
2023-08-17T17:28:14.716Z,101752.94
2023-08-17T17:30:47.474Z,101758.22
2023-08-17T17:33:20.571Z,101751.13
2023-08-17T17:35:54.617Z,101756.34
2023-08-17T17:38:27.303Z,101748.34
2023-08-17T17:41:00.096Z,101752.53
2023-08-17T17:43:32.699Z,101751.28
2023-08-17T17:46:05.428Z,101756.91
2023-08-17T17:48:38.118Z,101753.00
2023-08-17T17:51:12.292Z,101750.06
2023-08-17T17:53:45.248Z,101749.41
2023-08-17T17:56:18.183Z,101753.09
2023-08-17T17:58:51.161Z,101754.34
2023-08-17T18:01:23.991Z,101759.72
2023-08-17T18:04:01.063Z,101754.88
2023-08-17T18:06:36.248Z,101754.22
2023-08-17T18:09:09.995Z,101763.19
2023-08-17T18:11:43.347Z,101764.09
2023-08-17T18:14:16.510Z,101759.25
2023-08-17T18:16:49.421Z,101762.03
2023-08-17T18:19:22.293Z,101751.50
2023-08-17T18:21:56.470Z,101757.78
2023-08-17T18:24:29.360Z,101743.41
2023-08-17T18:27:02.165Z,101752.63
2023-08-17T18:29:35.462Z,101748.81
2023-08-17T18:32:08.115Z,101753.25
2023-08-17T18:34:40.931Z,101744.72
2023-08-17T18:37:14.923Z,101747.53
2023-08-17T18:39:47.721Z,101754.69
2023-08-17T18:42:20.305Z,101762.44
2023-08-17T18:44:53.059Z,101754.91
2023-08-17T18:47:26.028Z,101761.88
2023-08-17T18:49:58.969Z,101761.91
2023-08-17T18:52:33.057Z,101761.59
2023-08-17T18:55:12.022Z,101760.88
2023-08-17T18:57:45.192Z,101764.94
2023-08-17T19:00:18.386Z,101770.19
2023-08-17T19:02:51.520Z,101777.56
2023-08-17T19:05:24.532Z,101786.31
2023-08-17T19:07:58.608Z,101793.16
2023-08-17T19:10:31.330Z,101794.72
2023-08-17T19:13:04.146Z,101801.66
2023-08-17T19:15:36.879Z,101813.84
2023-08-17T19:18:10.472Z,101809.47
2023-08-17T19:20:43.512Z,101816.41
2023-08-17T19:23:17.709Z,101815.34
2023-08-17T19:25:50.466Z,101824.22
2023-08-17T19:28:23.226Z,101824.31
2023-08-17T19:30:55.991Z,101828.31
2023-08-17T19:33:28.674Z,101836.03
2023-08-17T19:36:01.733Z,101836.56
2023-08-17T19:38:35.750Z,101831.50
2023-08-17T19:41:08.510Z,101837.28
2023-08-17T19:43:41.246Z,101843.50
2023-08-17T19:46:14.038Z,101840.31
2023-08-17T19:48:47.634Z,101838.41
2023-08-17T19:51:20.753Z,101843.66
2023-08-17T19:53:54.905Z,101842.94
2023-08-17T19:56:28.251Z,101842.59
2023-08-17T19:59:01.776Z,101839.44
2023-08-17T20:01:37.062Z,101839.06
2023-08-17T20:04:12.021Z,101832.25
2023-08-17T20:06:49.041Z,101831.81
2023-08-17T20:09:23.412Z,101827.00
2023-08-17T20:11:56.331Z,101833.13
2023-08-17T20:14:29.205Z,101835.22
2023-08-17T20:17:02.079Z,101828.94
2023-08-17T20:19:35.892Z,101833.81
2023-08-17T20:22:08.996Z,101827.69
2023-08-17T20:24:44.307Z,101833.28
2023-08-17T20:27:17.414Z,101831.72
2023-08-17T20:29:51.756Z,101822.94
2023-08-17T20:32:24.749Z,101826.97
2023-08-17T20:34:57.769Z,101829.59
2023-08-17T20:37:30.820Z,101820.91
2023-08-17T20:40:06.305Z,101832.03
2023-08-17T20:42:39.317Z,101824.16
2023-08-17T20:45:12.589Z,101816.25
2023-08-17T20:47:45.797Z,101818.72
2023-08-17T20:50:19.976Z,101818.81
2023-08-17T20:52:54.683Z,101820.38
2023-08-17T20:55:29.162Z,101822.13
2023-08-17T20:58:02.123Z,101821.31
2023-08-17T21:00:36.784Z,101820.09
2023-08-17T21:03:10.399Z,101813.75
2023-08-17T21:05:43.372Z,101819.25
2023-08-17T21:08:16.300Z,101823.16
2023-08-17T21:10:51.030Z,101821.59
2023-08-17T21:13:24.147Z,101817.56
2023-08-17T21:16:04.389Z,101818.06
2023-08-17T21:18:37.765Z,101814.94
2023-08-17T21:21:10.655Z,101815.38
2023-08-17T21:23:44.474Z,101817.00
2023-08-17T21:26:19.341Z,101813.84
2023-08-17T21:28:52.767Z,101814.00
2023-08-17T21:31:25.705Z,101813.28
2023-08-17T21:33:58.680Z,101808.13
2023-08-17T21:42:54.176Z,101804.13
2023-08-17T21:45:27.436Z,101801.81
2023-08-17T21:48:00.272Z,101811.75
2023-08-17T21:50:32.968Z,101800.25
2023-08-17T21:53:06.520Z,101795.13
2023-08-17T21:55:39.279Z,101806.81
2023-08-17T21:58:13.712Z,101806.75
2023-08-17T22:00:47.695Z,101807.19
2023-08-17T22:03:21.076Z,101806.00
2023-08-17T22:06:03.822Z,101803.72
2023-08-17T22:08:37.618Z,101802.13
2023-08-17T22:11:23.416Z,101806.16
2023-08-17T22:20:07.842Z,101807.13
2023-08-17T22:22:41.290Z,101799.91
2023-08-17T22:25:16.819Z,101795.16
2023-08-17T22:27:50.471Z,101789.91
2023-08-17T22:30:23.254Z,101792.72
2023-08-17T22:32:56.111Z,101794.00
2023-08-17T22:35:30.750Z,101786.41
2023-08-17T22:38:03.672Z,101784.09
2023-08-17T22:40:36.417Z,101786.47
2023-08-17T22:43:09.044Z,101783.16
2023-08-17T22:45:41.781Z,101776.09
2023-08-17T22:48:14.631Z,101779.03
2023-08-17T22:50:49.173Z,101781.13
2023-08-17T22:53:22.064Z,101770.34
2023-08-17T22:55:54.800Z,101765.06
2023-08-17T22:58:27.649Z,101763.13
2023-08-17T23:01:00.441Z,101763.59
2023-08-17T23:06:28.075Z,101765.59
2023-08-17T23:09:01.118Z,101764.81
2023-08-17T23:11:33.831Z,101768.91
2023-08-17T23:14:06.644Z,101770.03
2023-08-17T23:16:39.359Z,101761.31
2023-08-17T23:19:12.235Z,101757.34
2023-08-17T23:21:46.210Z,101758.94
2023-08-17T23:24:19.000Z,101744.63
2023-08-17T23:26:52.124Z,101741.47
2023-08-17T23:29:24.905Z,101748.69
2023-08-17T23:32:00.257Z,101747.06
2023-08-17T23:34:39.079Z,101754.22
2023-08-17T23:37:13.149Z,101750.84
2023-08-17T23:39:46.215Z,101748.19
2023-08-17T23:42:19.112Z,101754.28
2023-08-17T23:44:53.399Z,101748.69
2023-08-17T23:47:26.224Z,101747.47
2023-08-17T23:49:59.114Z,101751.09
2023-08-17T23:52:33.392Z,101745.59
2023-08-17T23:55:07.224Z,101744.75
2023-08-17T23:57:40.075Z,101736.91
